Spring Valley, Nevada
Current Conditions -  °F | °C
As of 7:56 AM on Monday 22 Dec 2014 (Local Time) from KLAS Reporting Station
Clear Clear  
Wind Chill: 50°   Ceiling: Unl
Heat Index: 50°   Visibility: 10mi
Dew Point: 39°   Wind: 7mph
Humidity: 66%   Direction: 180°S
Pressure: 30.03"   Gusts: NA
Location:  36.11°N, 115.24°W
Report Text: KLAS 221556Z 18006KT 10SM CLR 10/04 A3003 RMK AO2 SLP168 T01000039
Loading
Personal Weather Stations






























Interactive Weather Map New forecast layout! Learn more

10-Day Weather Forecast

Advertisements
Track Severe Weather on mobile